Edward J. Moran — WDC9891 — position and weather

sailwx.info

Track history (hours):
 
Tides and Currents Weather Stations Pressure Air Temp Water Temp Dewpoint Dewpoint Depression Visibility Wind Speed Wind Dir Waves Ship Positions

Edward J. Moran

Owner: PNC EQUIPMENT FINANCE, LLC, Cincinnati, OH. More information available from US FCC via Universal Licensing System and Coast Guard Vessel Documentation Center.

Last reported at 2017-Oct-22 19:00 UTC. Time now 2017-Oct-22 19:04 UTC.
Position N 32°05' W 081°04'.

; draft 5.4 m.

Type: Tug. MMSI: 367108030.

Date/timePositionNaut miles runAvg speedWind from/ knotsBaromVisibWave heightAir tempDewpointWater temp
2017-Oct-22 19:00N 32°05' W 081°04'0 0.0
2017-Oct-22 18:30N 32°05' W 081°04'0 0.0
2017-Oct-22 18:00N 32°05' W 081°04'1 3.0
2017-Oct-22 17:30N 32°05' W 081°06'4 7.1
2017-Oct-22 17:00N 32°08' W 081°08'0 0.2
2017-Oct-22 16:30N 32°08' W 081°08'1 1.5
2017-Oct-22 16:01N 32°07' W 081°08'2 3.9
2017-Oct-22 15:30N 32°06' W 081°06'3 5.4
2017-Oct-22 15:00N 32°05' W 081°03'1 2.8
2017-Oct-22 14:30N 32°05' W 081°02'2 3.7
2017-Oct-22 14:00N 32°05' W 081°04'0 0.0
2017-Oct-22 13:30N 32°05' W 081°04'0 0.0
2017-Oct-22 13:00N 32°05' W 081°04'3 6.3
2017-Oct-22 12:30N 32°06' W 081°07'2 3.2
2017-Oct-22 12:00N 32°08' W 081°08'0 0.1
2017-Oct-22 11:30N 32°08' W 081°08'0 0.8
2017-Oct-22 11:00N 32°08' W 081°09'0 0.5
2017-Oct-22 10:30N 32°08' W 081°08'2 3.3
2017-Oct-22 10:00N 32°07' W 081°07'2 3.6
2017-Oct-22 09:30N 32°05' W 081°06'2 3.6
2017-Oct-22 09:00N 32°05' W 081°04'0 0.0
2017-Oct-22 08:30N 32°05' W 081°04'0 0.0
2017-Oct-22 08:00N 32°05' W 081°04'0 0.0
2017-Oct-22 07:30N 32°05' W 081°04'0 0.0
2017-Oct-22 07:00N 32°05' W 081°04'0 0.0
2017-Oct-22 06:30N 32°05' W 081°04'0 0.0
2017-Oct-22 06:00N 32°05' W 081°04'0 0.0
2017-Oct-22 05:30N 32°05' W 081°04'0 0.0
2017-Oct-22 05:00N 32°05' W 081°04'3 5.1
2017-Oct-22 04:30N 32°06' W 081°07'3 5.9
2017-Oct-22 04:01N 32°08' W 081°09'0 0.0
2017-Oct-22 03:30N 32°08' W 081°09'1 1.8
2017-Oct-22 03:01N 32°08' W 081°08'3 5.4
2017-Oct-22 02:30N 32°05' W 081°06'3 5.9
2017-Oct-22 02:00N 32°05' W 081°03'0 0.9
2017-Oct-22 01:30N 32°05' W 081°02'1 2.8
2017-Oct-22 01:00N 32°05' W 081°04'3 5.5
2017-Oct-22 00:30N 32°06' W 081°07'3 5.5
2017-Oct-22 00:00N 32°08' W 081°09'0 0.1
2017-Oct-21 23:30N 32°08' W 081°09'0 0.0
2017-Oct-21 23:00N 32°08' W 081°09'0 0.4
2017-Oct-21 22:30N 32°08' W 081°09'1 1.0
2017-Oct-21 22:00N 32°08' W 081°08'0 0.5
2017-Oct-21 21:31N 32°08' W 081°08'1 2.0
2017-Oct-21 21:00N 32°07' W 081°08'2 4.0
2017-Oct-21 20:30N 32°06' W 081°06'0 0.6
2017-Oct-21 20:00N 32°06' W 081°07'2 3.6
2017-Oct-21 19:30N 32°07' W 081°08'0 0.0
2017-Oct-21 19:00N 32°07' W 081°08'0 0.0
2017-Oct-21 18:30N 32°07' W 081°08'0 0.0
2017-Oct-21 18:00N 32°07' W 081°08'0 0.0
2017-Oct-21 17:30N 32°07' W 081°08'0 0.0
2017-Oct-21 17:00N 32°07' W 081°08'0 0.0
2017-Oct-21 16:30N 32°07' W 081°08'0 0.0
2017-Oct-21 16:00N 32°07' W 081°08'0 0.0
2017-Oct-21 15:30N 32°07' W 081°08'0 0.0
2017-Oct-21 15:00N 32°07' W 081°08'1 0.7
2017-Oct-21 14:00N 32°08' W 081°08'0 0.1
2017-Oct-21 13:31N 32°08' W 081°08'3 5.4
2017-Oct-21 13:00N 32°06' W 081°06'0 0.0
2017-Oct-21 12:30N 32°06' W 081°06'0 0.0
2017-Oct-21 12:00N 32°06' W 081°06'0 0.0
2017-Oct-21 11:30N 32°06' W 081°06'3 5.2
2017-Oct-21 11:00N 32°08' W 081°08'0 0.1
2017-Oct-21 10:30N 32°08' W 081°08'0 0.7
2017-Oct-21 10:00N 32°08' W 081°08'2 3.6
2017-Oct-21 09:30N 32°06' W 081°07'2 3.7
2017-Oct-21 09:00N 32°05' W 081°06'2 3.2
2017-Oct-21 08:30N 32°05' W 081°04'0 0.0
2017-Oct-21 08:00N 32°05' W 081°04'0 0.0
2017-Oct-21 07:30N 32°05' W 081°04'0 0.0
2017-Oct-21 07:00N 32°05' W 081°04'0 0.0
2017-Oct-21 06:30N 32°05' W 081°04'0 0.0
2017-Oct-21 06:00N 32°05' W 081°04'0 0.0
2017-Oct-21 05:30N 32°05' W 081°04'0 0.0
2017-Oct-21 05:00N 32°05' W 081°04'0 0.0
2017-Oct-21 04:30N 32°05' W 081°04'0 0.0
2017-Oct-21 04:00N 32°05' W 081°04'0 0.0
2017-Oct-21 03:30N 32°05' W 081°04'0 0.0
2017-Oct-21 03:00N 32°05' W 081°04'0 0.0
2017-Oct-21 02:30N 32°05' W 081°04'0 0.0
2017-Oct-21 02:00N 32°05' W 081°04'0 0.0
2017-Oct-21 01:30N 32°05' W 081°04'0 0.0
2017-Oct-21 01:00N 32°05' W 081°04'0 0.0
2017-Oct-21 00:30N 32°05' W 081°04'0 0.0
2017-Oct-20 23:59N 32°05' W 081°04'0 0.0
2017-Oct-20 23:30N 32°05' W 081°04'0 0.0
2017-Oct-20 23:00N 32°05' W 081°04'0 0.0
2017-Oct-20 22:30N 32°05' W 081°04'0 0.0
2017-Oct-20 22:00N 32°05' W 081°04'0 0.0
2017-Oct-20 21:30N 32°05' W 081°04'0 0.0
2017-Oct-20 21:00N 32°05' W 081°04'0 0.0
2017-Oct-20 20:30N 32°05' W 081°04'1 1.2
2017-Oct-20 20:00N 32°05' W 081°05'5 9.5
2017-Oct-20 19:30N 32°08' W 081°08'0 0.6
2017-Oct-20 19:00N 32°08' W 081°09'1 1.0
2017-Oct-20 18:31N 32°08' W 081°08'2 3.3
2017-Oct-20 18:00N 32°06' W 081°07'2 4.9
2017-Oct-20 17:30N 32°05' W 081°05'1 2.1
2017-Oct-20 17:00N 32°05' W 081°04'0 0.0
2017-Oct-20 16:30N 32°05' W 081°04'0 0.0
2017-Oct-20 16:00N 32°05' W 081°04'0 0.1
2017-Oct-20 15:30N 32°05' W 081°04'0 0.0
2017-Oct-20 15:00N 32°05' W 081°04'5 4.6
2017-Oct-20 14:00N 32°08' W 081°08'1 1.2
2017-Oct-20 13:31N 32°08' W 081°09'0 0.9
2017-Oct-20 13:00N 32°08' W 081°08'2 3.8
2017-Oct-20 12:30N 32°06' W 081°07'2 5.0
2017-Oct-20 12:00N 32°05' W 081°05'3 5.8
2017-Oct-20 11:31N 32°05' W 081°01'2 4.5
2017-Oct-20 11:00N 32°05' W 081°04'1 1.8
2017-Oct-20 10:30N 32°05' W 081°05'4 7.7
2017-Oct-20 10:00N 32°08' W 081°08'0 0.8
2017-Oct-20 09:31N 32°08' W 081°08'2 4.0
2017-Oct-20 09:00N 32°06' W 081°07'2 4.8
2017-Oct-20 08:30N 32°05' W 081°05'1 1.5
2017-Oct-20 08:00N 32°05' W 081°04'0 0.0
2017-Oct-20 07:30N 32°05' W 081°04'0 0.0
2017-Oct-20 07:00N 32°05' W 081°04'0 0.0
2017-Oct-20 06:30N 32°05' W 081°04'0 0.0
2017-Oct-20 06:00N 32°05' W 081°04'0 0.0
2017-Oct-20 05:30N 32°05' W 081°04'0 0.0
2017-Oct-20 05:00N 32°05' W 081°04'0 0.0
2017-Oct-20 04:30N 32°05' W 081°04'0 0.0
2017-Oct-20 04:00N 32°05' W 081°04'0 0.0
2017-Oct-20 03:30N 32°05' W 081°04'0 0.0
2017-Oct-20 03:00N 32°05' W 081°04'0 0.0
2017-Oct-20 02:30N 32°05' W 081°04'0 0.0
2017-Oct-20 02:00N 32°05' W 081°04'0 0.0
2017-Oct-20 01:30N 32°05' W 081°04'2 4.9
2017-Oct-20 01:00N 32°06' W 081°07'3 5.4
2017-Oct-20 00:30N 32°08' W 081°08'0 0.4
2017-Oct-20 00:01N 32°08' W 081°09'0 0.5
2017-Oct-19 23:30N 32°08' W 081°08'0 0.0
2017-Oct-19 23:00N 32°08' W 081°08'0 0.0
2017-Oct-19 22:30N 32°08' W 081°08'0 0.4
2017-Oct-19 22:00N 32°08' W 081°08'2 3.8
2017-Oct-19 21:30N 32°06' W 081°07'3 5.6
2017-Oct-19 21:00N 32°05' W 081°04'0 0.0
2017-Oct-19 20:30N 32°05' W 081°04'0 0.0
2017-Oct-19 20:00N 32°05' W 081°04'0 0.0
2017-Oct-19 19:30N 32°05' W 081°04'0 0.0
2017-Oct-19 19:00N 32°05' W 081°04'0 0.0
2017-Oct-19 18:30N 32°05' W 081°04'0 0.0
2017-Oct-19 18:00N 32°05' W 081°04'0 0.0
2017-Oct-19 17:30N 32°05' W 081°04'0 0.0
2017-Oct-19 17:00N 32°05' W 081°04'0 0.0
2017-Oct-19 16:30N 32°05' W 081°04'0 0.0
2017-Oct-19 16:00N 32°05' W 081°04'0 0.0
2017-Oct-19 15:30N 32°05' W 081°04'0 0.0
2017-Oct-19 15:00N 32°05' W 081°04'0 0.0
2017-Oct-19 14:30N 32°05' W 081°04'0 0.0
2017-Oct-19 14:00N 32°05' W 081°04'0 0.0
2017-Oct-19 13:30N 32°05' W 081°04'2 3.7
2017-Oct-19 13:00N 32°05' W 081°06'3 5.8
2017-Oct-19 12:30N 32°08' W 081°08'0 0.0
2017-Oct-19 12:01N 32°08' W 081°08'0 0.2
2017-Oct-19 11:31N 32°08' W 081°08'3 5.1
2017-Oct-19 11:00N 32°06' W 081°06'0 0.0
2017-Oct-19 10:30N 32°06' W 081°06'0 0.0
2017-Oct-19 10:00N 32°06' W 081°06'3 5.3
2017-Oct-19 09:30N 32°08' W 081°08'0 0.8
2017-Oct-19 09:00N 32°07' W 081°08'0 0.2
2017-Oct-19 08:30N 32°07' W 081°08'0 0.0
2017-Oct-19 08:00N 32°07' W 081°08'1 1.4
2017-Oct-19 07:30N 32°08' W 081°08'0 0.5
2017-Oct-19 07:00N 32°08' W 081°08'2 4.1
2017-Oct-19 06:30N 32°06' W 081°07'2 4.7
2017-Oct-19 06:00N 32°05' W 081°04'0 0.9
2017-Oct-19 05:30N 32°05' W 081°04'0 0.0
2017-Oct-19 05:00N 32°05' W 081°04'0 0.0
2017-Oct-19 04:30N 32°05' W 081°04'0 0.0
2017-Oct-19 04:00N 32°05' W 081°04'0 0.0
2017-Oct-19 03:30N 32°05' W 081°04'0 0.0
2017-Oct-19 03:00N 32°05' W 081°04'0 0.0
2017-Oct-19 02:30N 32°05' W 081°04'0 0.0
2017-Oct-19 02:00N 32°05' W 081°04'3 5.9
2017-Oct-19 01:30N 32°06' W 081°07'2 3.4
2017-Oct-19 00:59N 32°08' W 081°08'0 0.2
2017-Oct-19 00:30N 32°08' W 081°08'0 0.0
2017-Oct-19 00:00N 32°08' W 081°08'0 0.5
2017-Oct-18 23:31N 32°07' W 081°08'2 3.2
2017-Oct-18 23:00N 32°06' W 081°07'2 4.9
2017-Oct-18 22:30N 32°05' W 081°04'0 1.0
2017-Oct-18 22:00N 32°05' W 081°04'0 0.0
2017-Oct-18 21:29N 32°05' W 081°04'0 0.0
2017-Oct-18 21:00N 32°05' W 081°04'0 0.0
2017-Oct-18 20:30N 32°05' W 081°04'0 0.0
2017-Oct-18 20:00N 32°05' W 081°04'0 0.0
2017-Oct-18 19:30N 32°05' W 081°04'0 0.0
2017-Oct-18 19:00N 32°05' W 081°04'0 0.0
2017-Oct-18 18:30N 32°05' W 081°04'0 0.0
2017-Oct-18 18:00N 32°05' W 081°04'0 0.0
2017-Oct-18 17:30N 32°05' W 081°04'2 3.7
2017-Oct-18 17:00N 32°05' W 081°06'3 5.9
2017-Oct-18 16:30N 32°08' W 081°08'0 0.7
2017-Oct-18 16:00N 32°08' W 081°08'3 5.0
2017-Oct-18 15:30N 32°06' W 081°07'1 1.9
2017-Oct-18 15:00N 32°05' W 081°06'2 1.7
2017-Oct-18 14:00N 32°05' W 081°04'0 0.0
2017-Oct-18 13:30N 32°05' W 081°04'0 0.0
2017-Oct-18 13:00N 32°05' W 081°04'2 3.2
2017-Oct-18 12:30N 32°05' W 081°06'1 2.1
2017-Oct-18 12:01N 32°05' W 081°05'2 4.1
2017-Oct-18 11:30N 32°06' W 081°07'2 3.8
2017-Oct-18 11:00N 32°07' W 081°08'1 1.9
2017-Oct-18 10:30N 32°08' W 081°08'0 0.1
2017-Oct-18 10:00N 32°08' W 081°09'1 2.0
2017-Oct-18 09:30N 32°07' W 081°08'0 0.9
2017-Oct-18 09:00N 32°08' W 081°08'1 1.6
2017-Oct-18 08:30N 32°07' W 081°08'2 4.0
2017-Oct-18 08:00N 32°05' W 081°06'0 0.0
2017-Oct-18 07:30N 32°05' W 081°06'3 6.0
2017-Oct-18 07:01N 32°08' W 081°08'0 0.2
2017-Oct-18 06:30N 32°08' W 081°08'0 0.0
2017-Oct-18 06:00N 32°08' W 081°08'0 0.4
2017-Oct-18 05:30N 32°08' W 081°08'0 0.9
2017-Oct-18 05:00N 32°07' W 081°08'2 4.0
2017-Oct-18 04:30N 32°06' W 081°06'2 4.7
2017-Oct-18 04:00N 32°05' W 081°04'0 0.0
2017-Oct-18 03:30N 32°05' W 081°04'0 0.0
2017-Oct-18 03:00N 32°05' W 081°04'0 0.0
2017-Oct-18 02:30N 32°05' W 081°04'0 0.0
2017-Oct-18 02:00N 32°05' W 081°04'0 0.0
2017-Oct-18 01:30N 32°05' W 081°04'0 0.0
2017-Oct-18 01:00N 32°05' W 081°04'0 0.0
2017-Oct-18 00:30N 32°05' W 081°04'0 0.0
2017-Oct-18 00:00N 32°05' W 081°04'0 0.0
2017-Oct-17 23:30N 32°05' W 081°04'0 0.0
2017-Oct-17 23:00N 32°05' W 081°04'0 0.0
2017-Oct-17 22:30N 32°05' W 081°04'0 0.0
2017-Oct-17 22:00N 32°05' W 081°04'0 0.0
2017-Oct-17 21:30N 32°05' W 081°04'0 0.0
2017-Oct-17 21:00N 32°05' W 081°04'0 0.0
2017-Oct-17 20:30N 32°05' W 081°04'0 0.0
2017-Oct-17 20:00N 32°05' W 081°04'0 0.0
2017-Oct-17 19:30N 32°05' W 081°04'0 0.0
2017-Oct-17 19:00N 32°05' W 081°04'0 0.0
2017-Oct-17 18:30N 32°05' W 081°04'0 0.0
2017-Oct-17 18:00N 32°05' W 081°04'0 0.0
2017-Oct-17 17:30N 32°05' W 081°04'0 0.0
2017-Oct-17 17:00N 32°05' W 081°04'0 0.0
2017-Oct-17 16:30N 32°05' W 081°04'0 0.0
2017-Oct-17 16:00N 32°05' W 081°04'0 0.0
2017-Oct-17 15:30N 32°05' W 081°04'0 0.0
2017-Oct-17 15:00N 32°05' W 081°04'0 0.0
2017-Oct-17 14:30N 32°05' W 081°04'0 0.0
2017-Oct-17 14:01N 32°05' W 081°04'4 7.5
2017-Oct-17 13:30N 32°07' W 081°08'1 2.1
2017-Oct-17 13:00N 32°08' W 081°08'0 0.3
2017-Oct-17 12:31N 32°08' W 081°08'3 6.0
2017-Oct-17 12:00N 32°05' W 081°06'2 3.7
2017-Oct-17 11:30N 32°05' W 081°04'0 0.0
2017-Oct-17 11:00N 32°05' W 081°04'0 0.5
2017-Oct-17 10:30N 32°05' W 081°04'4 8.0
2017-Oct-17 10:00N 32°07' W 081°08'0 0.7
2017-Oct-17 09:29N 32°08' W 081°08'1 1.4
2017-Oct-17 09:00N 32°07' W 081°08'1 2.4
2017-Oct-17 08:30N 32°08' W 081°08'1 1.8
2017-Oct-17 08:00N 32°07' W 081°08'0 0.0
2017-Oct-17 07:30N 32°07' W 081°08'0 0.0
2017-Oct-17 07:00N 32°07' W 081°08'0 0.0
2017-Oct-17 06:30N 32°07' W 081°08'1 1.8
2017-Oct-17 06:00N 32°06' W 081°07'3 6.5
2017-Oct-17 05:30N 32°05' W 081°04'0 0.0
2017-Oct-17 05:00N 32°05' W 081°04'0 0.0
2017-Oct-17 04:30N 32°05' W 081°04'0 0.0
2017-Oct-17 04:00N 32°05' W 081°04'0 0.0
2017-Oct-17 03:30N 32°05' W 081°04'0 0.0
2017-Oct-17 03:00N 32°05' W 081°04'0 0.0
2017-Oct-17 02:30N 32°05' W 081°04'0 0.0
2017-Oct-17 02:00N 32°05' W 081°04'0 0.0
2017-Oct-17 01:30N 32°05' W 081°04'0 0.0
2017-Oct-17 01:00N 32°05' W 081°04'0 0.0
2017-Oct-17 00:30N 32°05' W 081°04'0 0.0
2017-Oct-17 00:00N 32°05' W 081°04'0 0.0
2017-Oct-16 23:30N 32°05' W 081°04'0 0.0
2017-Oct-16 23:00N 32°05' W 081°04'2 3.1
2017-Oct-16 22:30N 32°05' W 081°06'4 7.5
2017-Oct-16 22:00N 32°08' W 081°09'0 0.1
2017-Oct-16 21:30N 32°08' W 081°08'1 1.9
2017-Oct-16 21:00N 32°07' W 081°08'3 5.3
2017-Oct-16 20:30N 32°05' W 081°06'2 3.6
2017-Oct-16 20:00N 32°05' W 081°04'0 0.0
2017-Oct-16 19:30N 32°05' W 081°04'0 0.0
2017-Oct-16 19:00N 32°05' W 081°04'0 0.0
2017-Oct-16 18:30N 32°05' W 081°04'0 0.0
2017-Oct-16 18:00N 32°05' W 081°04'0 0.0
2017-Oct-16 17:30N 32°05' W 081°04'0 0.0
2017-Oct-16 17:00N 32°05' W 081°04'1 1.2
2017-Oct-16 16:31N 32°05' W 081°03'2 4.9
2017-Oct-16 16:01N 32°05' W 081°06'3 5.4
2017-Oct-16 15:31N 32°07' W 081°08'0 0.9
2017-Oct-16 15:00N 32°08' W 081°08'0 0.9
2017-Oct-16 14:30N 32°07' W 081°08'0 0.3
2017-Oct-16 13:30N 32°07' W 081°08'0 0.0
2017-Oct-16 13:00N 32°07' W 081°08'0 0.0
2017-Oct-16 12:30N 32°07' W 081°08'0 0.0
2017-Oct-16 12:00N 32°07' W 081°08'0 0.0
2017-Oct-16 11:30N 32°07' W 081°08'0 0.0
2017-Oct-16 11:00N 32°07' W 081°08'0 0.0
2017-Oct-16 10:30N 32°07' W 081°08'0 0.1
2017-Oct-16 10:00N 32°07' W 081°08'2 4.1
2017-Oct-16 09:31N 32°06' W 081°06'2 3.4
2017-Oct-16 09:00N 32°05' W 081°05'1 1.3
2017-Oct-16 08:30N 32°05' W 081°04'0 0.0
2017-Oct-16 08:00N 32°05' W 081°04'0 0.0
2017-Oct-16 07:30N 32°05' W 081°04'0 0.0
2017-Oct-16 07:00N 32°05' W 081°04'0 0.0
2017-Oct-16 06:30N 32°05' W 081°04'0 0.0
2017-Oct-16 06:00N 32°05' W 081°04'0 0.0
2017-Oct-16 05:30N 32°05' W 081°04'0 0.0
2017-Oct-16 05:00N 32°05' W 081°04'0 0.0
2017-Oct-16 04:30N 32°05' W 081°04'0 0.0
2017-Oct-16 04:00N 32°05' W 081°04'0 0.0
2017-Oct-16 03:30N 32°05' W 081°04'0 0.0
2017-Oct-16 03:00N 32°05' W 081°04'0 0.0
2017-Oct-16 02:30N 32°05' W 081°04'0 0.0
2017-Oct-16 02:00N 32°05' W 081°04'0 0.0
2017-Oct-16 01:30N 32°05' W 081°04'0 0.0
2017-Oct-16 01:00N 32°05' W 081°04'0 0.0
2017-Oct-16 00:30N 32°05' W 081°04'0 0.0
2017-Oct-16 00:00N 32°05' W 081°04'0 0.0
2017-Oct-15 23:30N 32°05' W 081°04'0 0.0
2017-Oct-15 23:00N 32°05' W 081°04'0 0.0
2017-Oct-15 22:30N 32°05' W 081°04'0 0.0
2017-Oct-15 22:00N 32°05' W 081°04'0 0.0
2017-Oct-15 21:30N 32°05' W 081°04'0 0.0
2017-Oct-15 21:00N 32°05' W 081°04'0 0.0
2017-Oct-15 20:30N 32°05' W 081°04'0 0.0
2017-Oct-15 20:00N 32°05' W 081°04'0 0.0
2017-Oct-15 19:30N 32°05' W 081°04'0 0.0
2017-Oct-15 19:00N 32°05' W 081°04'0 0.0
2017-Oct-15 18:30N 32°05' W 081°04'0 0.0
2017-Oct-15 18:00N 32°05' W 081°04'0 0.0
2017-Oct-15 17:30N 32°05' W 081°04'0 0.0
2017-Oct-15 17:00N 32°05' W 081°04'0 0.0
2017-Oct-15 16:30N 32°05' W 081°04'2 3.8
2017-Oct-15 16:00N 32°05' W 081°06'3 6.3
2017-Oct-15 15:30N 32°08' W 081°08'0 0.1
2017-Oct-15 15:00N 32°08' W 081°08'3 2.7
2017-Oct-15 14:01N 32°06' W 081°06'0 0.4
2017-Oct-15 13:30N 32°06' W 081°06'0 0.0
2017-Oct-15 13:00N 32°06' W 081°06'0 0.0
2017-Oct-15 12:30N 32°06' W 081°06'2 4.8
2017-Oct-15 12:00N 32°07' W 081°08'1 2.8
2017-Oct-15 11:30N 32°06' W 081°07'3 6.3
2017-Oct-15 11:01N 32°05' W 081°04'0 0.0
2017-Oct-15 10:30N 32°05' W 081°04'0 0.0
2017-Oct-15 10:00N 32°05' W 081°04'0 0.0
2017-Oct-15 09:30N 32°05' W 081°04'0 0.0
2017-Oct-15 09:00N 32°05' W 081°04'0 0.0
2017-Oct-15 08:30N 32°05' W 081°04'0 0.0
2017-Oct-15 08:00N 32°05' W 081°04'0 0.0
2017-Oct-15 07:30N 32°05' W 081°04'0 0.0
2017-Oct-15 07:00N 32°05' W 081°04'0 0.0
2017-Oct-15 06:30N 32°05' W 081°04'0 0.0
2017-Oct-15 06:00N 32°05' W 081°04'0 0.0
2017-Oct-15 05:30N 32°05' W 081°04'0 0.0
2017-Oct-15 05:00N 32°05' W 081°04'0 0.0
2017-Oct-15 04:30N 32°05' W 081°04'0 0.0
2017-Oct-15 04:00N 32°05' W 081°04'0 0.0
2017-Oct-15 03:30N 32°05' W 081°04'0 0.0
2017-Oct-15 03:00N 32°05' W 081°04'0 0.0
2017-Oct-15 02:30N 32°05' W 081°04'0 0.0
2017-Oct-15 02:00N 32°05' W 081°04'0 0.0
2017-Oct-15 01:30N 32°05' W 081°04'0 0.0
2017-Oct-15 01:00N 32°05' W 081°04'1 1.3
2017-Oct-15 00:30N 32°05' W 081°03'1 2.0
2017-Oct-15 00:00N 32°05' W 081°04'2 4.4
2017-Oct-14 23:30N 32°06' W 081°07'2 3.7
2017-Oct-14 23:00N 32°07' W 081°08'1 2.2
2017-Oct-14 22:30N 32°08' W 081°09'0 0.1
2017-Oct-14 22:00N 32°08' W 081°09'2 4.5
2017-Oct-14 21:30N 32°06' W 081°07'3 6.1
2017-Oct-14 21:00N 32°05' W 081°04'0 0.0
2017-Oct-14 20:30N 32°05' W 081°04'0 0.0
2017-Oct-14 20:00N 32°05' W 081°04'0 0.0
2017-Oct-14 19:30N 32°05' W 081°04'0 0.0
2017-Oct-14 19:00N 32°05' W 081°04'0 0.0
2017-Oct-14 18:29N 32°05' W 081°04'0 0.0
2017-Oct-14 18:00N 32°05' W 081°04'2 4.6
2017-Oct-14 17:30N 32°06' W 081°06'2 4.5
2017-Oct-14 17:00N 32°07' W 081°08'0 0.6
2017-Oct-14 16:30N 32°08' W 081°08'2 3.1
2017-Oct-14 16:00N 32°06' W 081°07'1 2.7
2017-Oct-14 15:30N 32°05' W 081°06'2 4.4
2017-Oct-14 15:00N 32°07' W 081°08'0 0.0
2017-Oct-14 14:30N 32°07' W 081°08'0 0.0
2017-Oct-14 14:00N 32°07' W 081°08'0 0.0
2017-Oct-14 13:30N 32°07' W 081°08'1 1.2
2017-Oct-14 13:00N 32°08' W 081°08'0 0.0
2017-Oct-14 12:30N 32°08' W 081°08'1 1.2
2017-Oct-14 12:00N 32°07' W 081°08'0 0.0
2017-Oct-14 11:30N 32°07' W 081°08'0 0.0
2017-Oct-14 11:00N 32°07' W 081°08'0 0.0
2017-Oct-14 10:30N 32°07' W 081°08'0 0.4
2017-Oct-14 10:00N 32°07' W 081°08'1 1.2
2017-Oct-14 09:30N 32°08' W 081°08'1 2.6
2017-Oct-14 09:00N 32°07' W 081°07'3 5.5
2017-Oct-14 08:30N 32°05' W 081°05'3 5.7
2017-Oct-14 08:00N 32°05' W 081°02'4 7.2
2017-Oct-14 07:30N 32°05' W 081°06'0 0.3
2017-Oct-14 07:00N 32°05' W 081°06'0 0.0
2017-Oct-14 06:30N 32°05' W 081°06'0 0.0
2017-Oct-14 06:00N 32°05' W 081°06'0 0.0
2017-Oct-14 05:30N 32°05' W 081°06'0 0.4
2017-Oct-14 05:00N 32°05' W 081°06'2 3.6
2017-Oct-14 04:31N 32°07' W 081°07'2 4.5
2017-Oct-14 04:00N 32°05' W 081°05'1 2.9
2017-Oct-14 03:30N 32°05' W 081°04'0 0.0
2017-Oct-14 03:00N 32°05' W 081°04'0 0.0
2017-Oct-14 02:30N 32°05' W 081°04'0 0.0
2017-Oct-14 02:00N 32°05' W 081°04'0 0.0
2017-Oct-14 01:30N 32°05' W 081°04'0 0.0
2017-Oct-14 01:00N 32°05' W 081°04'0 0.0
2017-Oct-14 00:30N 32°05' W 081°04'0 0.0
2017-Oct-14 00:00N 32°05' W 081°04'0 0.0
2017-Oct-13 23:30N 32°05' W 081°04'0 0.0
2017-Oct-13 23:00N 32°05' W 081°04'0 0.0
2017-Oct-13 22:30N 32°05' W 081°04'0 0.0
2017-Oct-13 22:00N 32°05' W 081°04'0 0.0
2017-Oct-13 21:30N 32°05' W 081°04'0 0.0
2017-Oct-13 21:00N 32°05' W 081°04'0 0.0
2017-Oct-13 20:30N 32°05' W 081°04'0 0.0
2017-Oct-13 20:00N 32°05' W 081°04'0 0.0
2017-Oct-13 19:30N 32°05' W 081°04'0 0.0
2017-Oct-13 19:00N 32°05' W 081°04'0 0.0
2017-Oct-13 18:30N 32°05' W 081°04'0 0.0
2017-Oct-13 18:00N 32°05' W 081°04'0 0.0
2017-Oct-13 17:30N 32°05' W 081°04'0 0.0
2017-Oct-13 17:00N 32°05' W 081°04'2 3.6
2017-Oct-13 16:30N 32°05' W 081°06'3 5.4
2017-Oct-13 16:00N 32°07' W 081°08'0 0.4
2017-Oct-13 15:30N 32°07' W 081°08'0 0.6
2017-Oct-13 15:00N 32°07' W 081°08'2 4.5
2017-Oct-13 14:30N 32°05' W 081°06'0 0.1
2017-Oct-13 14:00N 32°05' W 081°06'0 0.0
2017-Oct-13 13:30N 32°05' W 081°06'0 0.0
2017-Oct-13 13:00N 32°05' W 081°06'0 0.0
2017-Oct-13 12:31N 32°05' W 081°06'3 6.5
2017-Oct-13 12:01N 32°08' W 081°08'0 0.3
2017-Oct-13 11:30N 32°08' W 081°09'1 1.2
2017-Oct-13 11:00N 32°08' W 081°08'0 0.5
2017-Oct-13 10:30N 32°08' W 081°08'1 1.6
2017-Oct-13 10:00N 32°07' W 081°08'3 5.0
2017-Oct-13 09:31N 32°05' W 081°06'0 0.3
2017-Oct-13 09:00N 32°05' W 081°06'0 0.0
2017-Oct-13 08:30N 32°05' W 081°06'0 0.0
2017-Oct-13 08:00N 32°05' W 081°06'0 0.0
2017-Oct-13 07:30N 32°05' W 081°06'0 0.0
2017-Oct-13 07:00N 32°05' W 081°06'0 0.0
2017-Oct-13 06:30N 32°05' W 081°06'0 0.0
2017-Oct-13 06:00N 32°05' W 081°06'0 0.0
2017-Oct-13 05:30N 32°05' W 081°06'1 2.6
2017-Oct-13 05:00N 32°06' W 081°07'2 3.8
2017-Oct-13 04:30N 32°08' W 081°08'1 2.9
2017-Oct-13 04:00N 32°06' W 081°07'3 6.6
2017-Oct-13 03:31N 32°05' W 081°04'0 0.0
2017-Oct-13 03:00N 32°05' W 081°04'0 0.0
2017-Oct-13 02:30N 32°05' W 081°04'0 0.0
2017-Oct-13 02:00N 32°05' W 081°04'0 0.0
2017-Oct-13 01:30N 32°05' W 081°04'0 0.0
2017-Oct-13 01:00N 32°05' W 081°04'0 0.0
2017-Oct-13 00:30N 32°05' W 081°04'0 0.0
2017-Oct-13 00:00N 32°05' W 081°04'0 0.0
2017-Oct-12 23:30N 32°05' W 081°04'0 0.0
2017-Oct-12 23:00N 32°05' W 081°04'0 0.0
2017-Oct-12 22:30N 32°05' W 081°04'2 3.9
2017-Oct-12 22:00N 32°05' W 081°06'3 6.8
2017-Oct-12 21:30N 32°08' W 081°09'0 0.3
2017-Oct-12 21:00N 32°08' W 081°08'1 2.9
2017-Oct-12 20:30N 32°07' W 081°08'2 3.7
2017-Oct-12 20:00N 32°05' W 081°06'0 0.0
2017-Oct-12 19:30N 32°05' W 081°06'1 1.5
2017-Oct-12 19:00N 32°06' W 081°07'  
Track history (hours):
 
Tides and Currents Weather Stations Pressure Air Temp Water Temp Dewpoint Dewpoint Depression Visibility Wind Speed Wind Dir Waves Ship Positions

Edward J. Moran

Owner: PNC EQUIPMENT FINANCE, LLC, Cincinnati, OH. More information available from US FCC via Universal Licensing System and Coast Guard Vessel Documentation Center.

Last reported at 2017-Oct-22 19:00 UTC. Time now 2017-Oct-22 19:04 UTC.
Position N 32°05' W 081°04'.

; draft 5.4 m.

Type: Tug. MMSI: 367108030.

Date/timePositionNaut miles runAvg speedWind from/ knotsBaromVisibWave heightAir tempDewpointWater temp
2017-Oct-22 19:00N 32°05' W 081°04'0 0.0
2017-Oct-22 18:30N 32°05' W 081°04'0 0.0
2017-Oct-22 18:00N 32°05' W 081°04'1 3.0
2017-Oct-22 17:30N 32°05' W 081°06'4 7.1
2017-Oct-22 17:00N 32°08' W 081°08'0 0.2
2017-Oct-22 16:30N 32°08' W 081°08'1 1.5
2017-Oct-22 16:01N 32°07' W 081°08'2 3.9
2017-Oct-22 15:30N 32°06' W 081°06'3 5.4
2017-Oct-22 15:00N 32°05' W 081°03'1 2.8
2017-Oct-22 14:30N 32°05' W 081°02'2 3.7
2017-Oct-22 14:00N 32°05' W 081°04'0 0.0
2017-Oct-22 13:30N 32°05' W 081°04'0 0.0
2017-Oct-22 13:00N 32°05' W 081°04'3 6.3
2017-Oct-22 12:30N 32°06' W 081°07'2 3.2
2017-Oct-22 12:00N 32°08' W 081°08'0 0.1
2017-Oct-22 11:30N 32°08' W 081°08'0 0.8
2017-Oct-22 11:00N 32°08' W 081°09'0 0.5
2017-Oct-22 10:30N 32°08' W 081°08'2 3.3
2017-Oct-22 10:00N 32°07' W 081°07'2 3.6
2017-Oct-22 09:30N 32°05' W 081°06'2 3.6
2017-Oct-22 09:00N 32°05' W 081°04'0 0.0
2017-Oct-22 08:30N 32°05' W 081°04'0 0.0
2017-Oct-22 08:00N 32°05' W 081°04'0 0.0
2017-Oct-22 07:30N 32°05' W 081°04'0 0.0
2017-Oct-22 07:00N 32°05' W 081°04'0 0.0
2017-Oct-22 06:30N 32°05' W 081°04'0 0.0
2017-Oct-22 06:00N 32°05' W 081°04'0 0.0
2017-Oct-22 05:30N 32°05' W 081°04'0 0.0
2017-Oct-22 05:00N 32°05' W 081°04'3 5.1
2017-Oct-22 04:30N 32°06' W 081°07'3 5.9
2017-Oct-22 04:01N 32°08' W 081°09'0 0.0
2017-Oct-22 03:30N 32°08' W 081°09'1 1.8
2017-Oct-22 03:01N 32°08' W 081°08'3 5.4
2017-Oct-22 02:30N 32°05' W 081°06'3 5.9
2017-Oct-22 02:00N 32°05' W 081°03'0 0.9
2017-Oct-22 01:30N 32°05' W 081°02'1 2.8
2017-Oct-22 01:00N 32°05' W 081°04'3 5.5
2017-Oct-22 00:30N 32°06' W 081°07'3 5.5
2017-Oct-22 00:00N 32°08' W 081°09'0 0.1
2017-Oct-21 23:30N 32°08' W 081°09'0 0.0
2017-Oct-21 23:00N 32°08' W 081°09'0 0.4
2017-Oct-21 22:30N 32°08' W 081°09'1 1.0
2017-Oct-21 22:00N 32°08' W 081°08'0 0.5
2017-Oct-21 21:31N 32°08' W 081°08'1 2.0
2017-Oct-21 21:00N 32°07' W 081°08'2 4.0
2017-Oct-21 20:30N 32°06' W 081°06'0 0.6
2017-Oct-21 20:00N 32°06' W 081°07'2 3.6
2017-Oct-21 19:30N 32°07' W 081°08'0 0.0
2017-Oct-21 19:00N 32°07' W 081°08'0 0.0
2017-Oct-21 18:30N 32°07' W 081°08'0 0.0
2017-Oct-21 18:00N 32°07' W 081°08'0 0.0
2017-Oct-21 17:30N 32°07' W 081°08'0 0.0
2017-Oct-21 17:00N 32°07' W 081°08'0 0.0
2017-Oct-21 16:30N 32°07' W 081°08'0 0.0
2017-Oct-21 16:00N 32°07' W 081°08'0 0.0
2017-Oct-21 15:30N 32°07' W 081°08'0 0.0
2017-Oct-21 15:00N 32°07' W 081°08'1 0.7
2017-Oct-21 14:00N 32°08' W 081°08'0 0.1
2017-Oct-21 13:31N 32°08' W 081°08'3 5.4
2017-Oct-21 13:00N 32°06' W 081°06'0 0.0
2017-Oct-21 12:30N 32°06' W 081°06'0 0.0
2017-Oct-21 12:00N 32°06' W 081°06'0 0.0
2017-Oct-21 11:30N 32°06' W 081°06'3 5.2
2017-Oct-21 11:00N 32°08' W 081°08'0 0.1
2017-Oct-21 10:30N 32°08' W 081°08'0 0.7
2017-Oct-21 10:00N 32°08' W 081°08'2 3.6
2017-Oct-21 09:30N 32°06' W 081°07'2 3.7
2017-Oct-21 09:00N 32°05' W 081°06'2 3.2
2017-Oct-21 08:30N 32°05' W 081°04'0 0.0
2017-Oct-21 08:00N 32°05' W 081°04'0 0.0
2017-Oct-21 07:30N 32°05' W 081°04'0 0.0
2017-Oct-21 07:00N 32°05' W 081°04'0 0.0
2017-Oct-21 06:30N 32°05' W 081°04'0 0.0
2017-Oct-21 06:00N 32°05' W 081°04'0 0.0
2017-Oct-21 05:30N 32°05' W 081°04'0 0.0
2017-Oct-21 05:00N 32°05' W 081°04'0 0.0
2017-Oct-21 04:30N 32°05' W 081°04'0 0.0
2017-Oct-21 04:00N 32°05' W 081°04'0 0.0
2017-Oct-21 03:30N 32°05' W 081°04'0 0.0
2017-Oct-21 03:00N 32°05' W 081°04'0 0.0
2017-Oct-21 02:30N 32°05' W 081°04'0 0.0
2017-Oct-21 02:00N 32°05' W 081°04'0 0.0
2017-Oct-21 01:30N 32°05' W 081°04'0 0.0
2017-Oct-21 01:00N 32°05' W 081°04'0 0.0
2017-Oct-21 00:30N 32°05' W 081°04'0 0.0
2017-Oct-20 23:59N 32°05' W 081°04'0 0.0
2017-Oct-20 23:30N 32°05' W 081°04'0 0.0
2017-Oct-20 23:00N 32°05' W 081°04'0 0.0
2017-Oct-20 22:30N 32°05' W 081°04'0 0.0
2017-Oct-20 22:00N 32°05' W 081°04'0 0.0
2017-Oct-20 21:30N 32°05' W 081°04'0 0.0
2017-Oct-20 21:00N 32°05' W 081°04'0 0.0
2017-Oct-20 20:30N 32°05' W 081°04'1 1.2
2017-Oct-20 20:00N 32°05' W 081°05'5 9.5
2017-Oct-20 19:30N 32°08' W 081°08'0 0.6
2017-Oct-20 19:00N 32°08' W 081°09'1 1.0
2017-Oct-20 18:31N 32°08' W 081°08'2 3.3
2017-Oct-20 18:00N 32°06' W 081°07'2 4.9
2017-Oct-20 17:30N 32°05' W 081°05'1 2.1
2017-Oct-20 17:00N 32°05' W 081°04'0 0.0
2017-Oct-20 16:30N 32°05' W 081°04'0 0.0
2017-Oct-20 16:00N 32°05' W 081°04'0 0.1
2017-Oct-20 15:30N 32°05' W 081°04'0 0.0
2017-Oct-20 15:00N 32°05' W 081°04'5 4.6
2017-Oct-20 14:00N 32°08' W 081°08'1 1.2
2017-Oct-20 13:31N 32°08' W 081°09'0 0.9
2017-Oct-20 13:00N 32°08' W 081°08'2 3.8
2017-Oct-20 12:30N 32°06' W 081°07'2 5.0
2017-Oct-20 12:00N 32°05' W 081°05'3 5.8
2017-Oct-20 11:31N 32°05' W 081°01'2 4.5
2017-Oct-20 11:00N 32°05' W 081°04'1 1.8
2017-Oct-20 10:30N 32°05' W 081°05'4 7.7
2017-Oct-20 10:00N 32°08' W 081°08'0 0.8
2017-Oct-20 09:31N 32°08' W 081°08'2 4.0
2017-Oct-20 09:00N 32°06' W 081°07'2 4.8
2017-Oct-20 08:30N 32°05' W 081°05'1 1.5
2017-Oct-20 08:00N 32°05' W 081°04'0 0.0
2017-Oct-20 07:30N 32°05' W 081°04'0 0.0
2017-Oct-20 07:00N 32°05' W 081°04'0 0.0
2017-Oct-20 06:30N 32°05' W 081°04'0 0.0
2017-Oct-20 06:00N 32°05' W 081°04'0 0.0
2017-Oct-20 05:30N 32°05' W 081°04'0 0.0
2017-Oct-20 05:00N 32°05' W 081°04'0 0.0
2017-Oct-20 04:30N 32°05' W 081°04'0 0.0
2017-Oct-20 04:00N 32°05' W 081°04'0 0.0
2017-Oct-20 03:30N 32°05' W 081°04'0 0.0
2017-Oct-20 03:00N 32°05' W 081°04'0 0.0
2017-Oct-20 02:30N 32°05' W 081°04'0 0.0
2017-Oct-20 02:00N 32°05' W 081°04'0 0.0
2017-Oct-20 01:30N 32°05' W 081°04'2 4.9
2017-Oct-20 01:00N 32°06' W 081°07'3 5.4
2017-Oct-20 00:30N 32°08' W 081°08'0 0.4
2017-Oct-20 00:01N 32°08' W 081°09'0 0.5
2017-Oct-19 23:30N 32°08' W 081°08'0 0.0
2017-Oct-19 23:00N 32°08' W 081°08'0 0.0
2017-Oct-19 22:30N 32°08' W 081°08'0 0.4
2017-Oct-19 22:00N 32°08' W 081°08'2 3.8
2017-Oct-19 21:30N 32°06' W 081°07'3 5.6
2017-Oct-19 21:00N 32°05' W 081°04'0 0.0
2017-Oct-19 20:30N 32°05' W 081°04'0 0.0
2017-Oct-19 20:00N 32°05' W 081°04'0 0.0
2017-Oct-19 19:30N 32°05' W 081°04'0 0.0
2017-Oct-19 19:00N 32°05' W 081°04'0 0.0
2017-Oct-19 18:30N 32°05' W 081°04'0 0.0
2017-Oct-19 18:00N 32°05' W 081°04'0 0.0
2017-Oct-19 17:30N 32°05' W 081°04'0 0.0
2017-Oct-19 17:00N 32°05' W 081°04'0 0.0
2017-Oct-19 16:30N 32°05' W 081°04'0 0.0
2017-Oct-19 16:00N 32°05' W 081°04'0 0.0
2017-Oct-19 15:30N 32°05' W 081°04'0 0.0
2017-Oct-19 15:00N 32°05' W 081°04'0 0.0
2017-Oct-19 14:30N 32°05' W 081°04'0 0.0
2017-Oct-19 14:00N 32°05' W 081°04'0 0.0
2017-Oct-19 13:30N 32°05' W 081°04'2 3.7
2017-Oct-19 13:00N 32°05' W 081°06'3 5.8
2017-Oct-19 12:30N 32°08' W 081°08'0 0.0
2017-Oct-19 12:01N 32°08' W 081°08'0 0.2
2017-Oct-19 11:31N 32°08' W 081°08'3 5.1
2017-Oct-19 11:00N 32°06' W 081°06'0 0.0
2017-Oct-19 10:30N 32°06' W 081°06'0 0.0
2017-Oct-19 10:00N 32°06' W 081°06'3 5.3
2017-Oct-19 09:30N 32°08' W 081°08'0 0.8
2017-Oct-19 09:00N 32°07' W 081°08'0 0.2
2017-Oct-19 08:30N 32°07' W 081°08'0 0.0
2017-Oct-19 08:00N 32°07' W 081°08'1 1.4
2017-Oct-19 07:30N 32°08' W 081°08'0 0.5
2017-Oct-19 07:00N 32°08' W 081°08'2 4.1
2017-Oct-19 06:30N 32°06' W 081°07'2 4.7
2017-Oct-19 06:00N 32°05' W 081°04'0 0.9
2017-Oct-19 05:30N 32°05' W 081°04'0 0.0
2017-Oct-19 05:00N 32°05' W 081°04'0 0.0
2017-Oct-19 04:30N 32°05' W 081°04'0 0.0
2017-Oct-19 04:00N 32°05' W 081°04'0 0.0
2017-Oct-19 03:30N 32°05' W 081°04'0 0.0
2017-Oct-19 03:00N 32°05' W 081°04'0 0.0
2017-Oct-19 02:30N 32°05' W 081°04'0 0.0
2017-Oct-19 02:00N 32°05' W 081°04'3 5.9
2017-Oct-19 01:30N 32°06' W 081°07'2 3.4
2017-Oct-19 00:59N 32°08' W 081°08'0 0.2
2017-Oct-19 00:30N 32°08' W 081°08'0 0.0
2017-Oct-19 00:00N 32°08' W 081°08'0 0.5
2017-Oct-18 23:31N 32°07' W 081°08'2 3.2
2017-Oct-18 23:00N 32°06' W 081°07'2 4.9
2017-Oct-18 22:30N 32°05' W 081°04'0 1.0
2017-Oct-18 22:00N 32°05' W 081°04'0 0.0
2017-Oct-18 21:29N 32°05' W 081°04'0 0.0
2017-Oct-18 21:00N 32°05' W 081°04'0 0.0
2017-Oct-18 20:30N 32°05' W 081°04'0 0.0
2017-Oct-18 20:00N 32°05' W 081°04'0 0.0
2017-Oct-18 19:30N 32°05' W 081°04'0 0.0
2017-Oct-18 19:00N 32°05' W 081°04'0 0.0
2017-Oct-18 18:30N 32°05' W 081°04'0 0.0
2017-Oct-18 18:00N 32°05' W 081°04'0 0.0
2017-Oct-18 17:30N 32°05' W 081°04'2 3.7
2017-Oct-18 17:00N 32°05' W 081°06'3 5.9
2017-Oct-18 16:30N 32°08' W 081°08'0 0.7
2017-Oct-18 16:00N 32°08' W 081°08'3 5.0
2017-Oct-18 15:30N 32°06' W 081°07'1 1.9
2017-Oct-18 15:00N 32°05' W 081°06'2 1.7
2017-Oct-18 14:00N 32°05' W 081°04'0 0.0
2017-Oct-18 13:30N 32°05' W 081°04'0 0.0
2017-Oct-18 13:00N 32°05' W 081°04'2 3.2
2017-Oct-18 12:30N 32°05' W 081°06'1 2.1
2017-Oct-18 12:01N 32°05' W 081°05'2 4.1
2017-Oct-18 11:30N 32°06' W 081°07'2 3.8
2017-Oct-18 11:00N 32°07' W 081°08'1 1.9
2017-Oct-18 10:30N 32°08' W 081°08'0 0.1
2017-Oct-18 10:00N 32°08' W 081°09'1 2.0
2017-Oct-18 09:30N 32°07' W 081°08'0 0.9
2017-Oct-18 09:00N 32°08' W 081°08'1 1.6
2017-Oct-18 08:30N 32°07' W 081°08'2 4.0
2017-Oct-18 08:00N 32°05' W 081°06'0 0.0
2017-Oct-18 07:30N 32°05' W 081°06'3 6.0
2017-Oct-18 07:01N 32°08' W 081°08'0 0.2
2017-Oct-18 06:30N 32°08' W 081°08'0 0.0
2017-Oct-18 06:00N 32°08' W 081°08'0 0.4
2017-Oct-18 05:30N 32°08' W 081°08'0 0.9
2017-Oct-18 05:00N 32°07' W 081°08'2 4.0
2017-Oct-18 04:30N 32°06' W 081°06'2 4.7
2017-Oct-18 04:00N 32°05' W 081°04'0 0.0
2017-Oct-18 03:30N 32°05' W 081°04'0 0.0
2017-Oct-18 03:00N 32°05' W 081°04'0 0.0
2017-Oct-18 02:30N 32°05' W 081°04'0 0.0
2017-Oct-18 02:00N 32°05' W 081°04'0 0.0
2017-Oct-18 01:30N 32°05' W 081°04'0 0.0
2017-Oct-18 01:00N 32°05' W 081°04'0 0.0
2017-Oct-18 00:30N 32°05' W 081°04'0 0.0
2017-Oct-18 00:00N 32°05' W 081°04'0 0.0
2017-Oct-17 23:30N 32°05' W 081°04'0 0.0
2017-Oct-17 23:00N 32°05' W 081°04'0 0.0
2017-Oct-17 22:30N 32°05' W 081°04'0 0.0
2017-Oct-17 22:00N 32°05' W 081°04'0 0.0
2017-Oct-17 21:30N 32°05' W 081°04'0 0.0
2017-Oct-17 21:00N 32°05' W 081°04'0 0.0
2017-Oct-17 20:30N 32°05' W 081°04'0 0.0
2017-Oct-17 20:00N 32°05' W 081°04'0 0.0
2017-Oct-17 19:30N 32°05' W 081°04'0 0.0
2017-Oct-17 19:00N 32°05' W 081°04'0 0.0
2017-Oct-17 18:30N 32°05' W 081°04'0 0.0
2017-Oct-17 18:00N 32°05' W 081°04'0 0.0
2017-Oct-17 17:30N 32°05' W 081°04'0 0.0
2017-Oct-17 17:00N 32°05' W 081°04'0 0.0
2017-Oct-17 16:30N 32°05' W 081°04'0 0.0
2017-Oct-17 16:00N 32°05' W 081°04'0 0.0
2017-Oct-17 15:30N 32°05' W 081°04'0 0.0
2017-Oct-17 15:00N 32°05' W 081°04'0 0.0
2017-Oct-17 14:30N 32°05' W 081°04'0 0.0
2017-Oct-17 14:01N 32°05' W 081°04'4 7.5
2017-Oct-17 13:30N 32°07' W 081°08'1 2.1
2017-Oct-17 13:00N 32°08' W 081°08'0 0.3
2017-Oct-17 12:31N 32°08' W 081°08'3 6.0
2017-Oct-17 12:00N 32°05' W 081°06'2 3.7
2017-Oct-17 11:30N 32°05' W 081°04'0 0.0
2017-Oct-17 11:00N 32°05' W 081°04'0 0.5
2017-Oct-17 10:30N 32°05' W 081°04'4 8.0
2017-Oct-17 10:00N 32°07' W 081°08'0 0.7
2017-Oct-17 09:29N 32°08' W 081°08'1 1.4
2017-Oct-17 09:00N 32°07' W 081°08'1 2.4
2017-Oct-17 08:30N 32°08' W 081°08'1 1.8
2017-Oct-17 08:00N 32°07' W 081°08'0 0.0
2017-Oct-17 07:30N 32°07' W 081°08'0 0.0
2017-Oct-17 07:00N 32°07' W 081°08'0 0.0
2017-Oct-17 06:30N 32°07' W 081°08'1 1.8
2017-Oct-17 06:00N 32°06' W 081°07'3 6.5
2017-Oct-17 05:30N 32°05' W 081°04'0 0.0
2017-Oct-17 05:00N 32°05' W 081°04'0 0.0
2017-Oct-17 04:30N 32°05' W 081°04'0 0.0
2017-Oct-17 04:00N 32°05' W 081°04'0 0.0
2017-Oct-17 03:30N 32°05' W 081°04'0 0.0
2017-Oct-17 03:00N 32°05' W 081°04'0 0.0
2017-Oct-17 02:30N 32°05' W 081°04'0 0.0
2017-Oct-17 02:00N 32°05' W 081°04'0 0.0
2017-Oct-17 01:30N 32°05' W 081°04'0 0.0
2017-Oct-17 01:00N 32°05' W 081°04'0 0.0
2017-Oct-17 00:30N 32°05' W 081°04'0 0.0
2017-Oct-17 00:00N 32°05' W 081°04'0 0.0
2017-Oct-16 23:30N 32°05' W 081°04'0 0.0
2017-Oct-16 23:00N 32°05' W 081°04'2 3.1
2017-Oct-16 22:30N 32°05' W 081°06'4 7.5
2017-Oct-16 22:00N 32°08' W 081°09'0 0.1
2017-Oct-16 21:30N 32°08' W 081°08'1 1.9
2017-Oct-16 21:00N 32°07' W 081°08'3 5.3
2017-Oct-16 20:30N 32°05' W 081°06'2 3.6
2017-Oct-16 20:00N 32°05' W 081°04'0 0.0
2017-Oct-16 19:30N 32°05' W 081°04'0 0.0
2017-Oct-16 19:00N 32°05' W 081°04'0 0.0
2017-Oct-16 18:30N 32°05' W 081°04'0 0.0
2017-Oct-16 18:00N 32°05' W 081°04'0 0.0
2017-Oct-16 17:30N 32°05' W 081°04'0 0.0
2017-Oct-16 17:00N 32°05' W 081°04'1 1.2
2017-Oct-16 16:31N 32°05' W 081°03'2 4.9
2017-Oct-16 16:01N 32°05' W 081°06'3 5.4
2017-Oct-16 15:31N 32°07' W 081°08'0 0.9
2017-Oct-16 15:00N 32°08' W 081°08'0 0.9
2017-Oct-16 14:30N 32°07' W 081°08'0 0.3
2017-Oct-16 13:30N 32°07' W 081°08'0 0.0
2017-Oct-16 13:00N 32°07' W 081°08'0 0.0
2017-Oct-16 12:30N 32°07' W 081°08'0 0.0
2017-Oct-16 12:00N 32°07' W 081°08'0 0.0
2017-Oct-16 11:30N 32°07' W 081°08'0 0.0
2017-Oct-16 11:00N 32°07' W 081°08'0 0.0
2017-Oct-16 10:30N 32°07' W 081°08'0 0.1
2017-Oct-16 10:00N 32°07' W 081°08'2 4.1
2017-Oct-16 09:31N 32°06' W 081°06'2 3.4
2017-Oct-16 09:00N 32°05' W 081°05'1 1.3
2017-Oct-16 08:30N 32°05' W 081°04'0 0.0
2017-Oct-16 08:00N 32°05' W 081°04'0 0.0
2017-Oct-16 07:30N 32°05' W 081°04'0 0.0
2017-Oct-16 07:00N 32°05' W 081°04'0 0.0
2017-Oct-16 06:30N 32°05' W 081°04'0 0.0
2017-Oct-16 06:00N 32°05' W 081°04'0 0.0
2017-Oct-16 05:30N 32°05' W 081°04'0 0.0
2017-Oct-16 05:00N 32°05' W 081°04'0 0.0
2017-Oct-16 04:30N 32°05' W 081°04'0 0.0
2017-Oct-16 04:00N 32°05' W 081°04'0 0.0
2017-Oct-16 03:30N 32°05' W 081°04'0 0.0
2017-Oct-16 03:00N 32°05' W 081°04'0 0.0
2017-Oct-16 02:30N 32°05' W 081°04'0 0.0
2017-Oct-16 02:00N 32°05' W 081°04'0 0.0
2017-Oct-16 01:30N 32°05' W 081°04'0 0.0
2017-Oct-16 01:00N 32°05' W 081°04'0 0.0
2017-Oct-16 00:30N 32°05' W 081°04'0 0.0
2017-Oct-16 00:00N 32°05' W 081°04'0 0.0
2017-Oct-15 23:30N 32°05' W 081°04'0 0.0
2017-Oct-15 23:00N 32°05' W 081°04'0 0.0
2017-Oct-15 22:30N 32°05' W 081°04'0 0.0
2017-Oct-15 22:00N 32°05' W 081°04'0 0.0
2017-Oct-15 21:30N 32°05' W 081°04'0 0.0
2017-Oct-15 21:00N 32°05' W 081°04'0 0.0
2017-Oct-15 20:30N 32°05' W 081°04'0 0.0
2017-Oct-15 20:00N 32°05' W 081°04'0 0.0
2017-Oct-15 19:30N 32°05' W 081°04'0 0.0
2017-Oct-15 19:00N 32°05' W 081°04'0 0.0
2017-Oct-15 18:30N 32°05' W 081°04'0 0.0
2017-Oct-15 18:00N 32°05' W 081°04'0 0.0
2017-Oct-15 17:30N 32°05' W 081°04'0 0.0
2017-Oct-15 17:00N 32°05' W 081°04'0 0.0
2017-Oct-15 16:30N 32°05' W 081°04'2 3.8
2017-Oct-15 16:00N 32°05' W 081°06'3 6.3
2017-Oct-15 15:30N 32°08' W 081°08'0 0.1
2017-Oct-15 15:00N 32°08' W 081°08'3 2.7
2017-Oct-15 14:01N 32°06' W 081°06'0 0.4
2017-Oct-15 13:30N 32°06' W 081°06'0 0.0
2017-Oct-15 13:00N 32°06' W 081°06'0 0.0
2017-Oct-15 12:30N 32°06' W 081°06'2 4.8
2017-Oct-15 12:00N 32°07' W 081°08'1 2.8
2017-Oct-15 11:30N 32°06' W 081°07'3 6.3
2017-Oct-15 11:01N 32°05' W 081°04'0 0.0
2017-Oct-15 10:30N 32°05' W 081°04'0 0.0
2017-Oct-15 10:00N 32°05' W 081°04'0 0.0
2017-Oct-15 09:30N 32°05' W 081°04'0 0.0
2017-Oct-15 09:00N 32°05' W 081°04'0 0.0
2017-Oct-15 08:30N 32°05' W 081°04'0 0.0
2017-Oct-15 08:00N 32°05' W 081°04'0 0.0
2017-Oct-15 07:30N 32°05' W 081°04'0 0.0
2017-Oct-15 07:00N 32°05' W 081°04'0 0.0
2017-Oct-15 06:30N 32°05' W 081°04'0 0.0
2017-Oct-15 06:00N 32°05' W 081°04'0 0.0
2017-Oct-15 05:30N 32°05' W 081°04'0 0.0
2017-Oct-15 05:00N 32°05' W 081°04'0 0.0
2017-Oct-15 04:30N 32°05' W 081°04'0 0.0
2017-Oct-15 04:00N 32°05' W 081°04'0 0.0
2017-Oct-15 03:30N 32°05' W 081°04'0 0.0
2017-Oct-15 03:00N 32°05' W 081°04'0 0.0
2017-Oct-15 02:30N 32°05' W 081°04'0 0.0
2017-Oct-15 02:00N 32°05' W 081°04'0 0.0
2017-Oct-15 01:30N 32°05' W 081°04'0 0.0
2017-Oct-15 01:00N 32°05' W 081°04'1 1.3
2017-Oct-15 00:30N 32°05' W 081°03'1 2.0
2017-Oct-15 00:00N 32°05' W 081°04'2 4.4
2017-Oct-14 23:30N 32°06' W 081°07'2 3.7
2017-Oct-14 23:00N 32°07' W 081°08'1 2.2
2017-Oct-14 22:30N 32°08' W 081°09'0 0.1
2017-Oct-14 22:00N 32°08' W 081°09'2 4.5
2017-Oct-14 21:30N 32°06' W 081°07'3 6.1
2017-Oct-14 21:00N 32°05' W 081°04'0 0.0
2017-Oct-14 20:30N 32°05' W 081°04'0 0.0
2017-Oct-14 20:00N 32°05' W 081°04'0 0.0
2017-Oct-14 19:30N 32°05' W 081°04'0 0.0
2017-Oct-14 19:00N 32°05' W 081°04'0 0.0
2017-Oct-14 18:29N 32°05' W 081°04'0 0.0
2017-Oct-14 18:00N 32°05' W 081°04'2 4.6
2017-Oct-14 17:30N 32°06' W 081°06'2 4.5
2017-Oct-14 17:00N 32°07' W 081°08'0 0.6
2017-Oct-14 16:30N 32°08' W 081°08'2 3.1
2017-Oct-14 16:00N 32°06' W 081°07'1 2.7
2017-Oct-14 15:30N 32°05' W 081°06'2 4.4
2017-Oct-14 15:00N 32°07' W 081°08'0 0.0
2017-Oct-14 14:30N 32°07' W 081°08'0 0.0
2017-Oct-14 14:00N 32°07' W 081°08'0 0.0
2017-Oct-14 13:30N 32°07' W 081°08'1 1.2
2017-Oct-14 13:00N 32°08' W 081°08'0 0.0
2017-Oct-14 12:30N 32°08' W 081°08'1 1.2
2017-Oct-14 12:00N 32°07' W 081°08'0 0.0
2017-Oct-14 11:30N 32°07' W 081°08'0 0.0
2017-Oct-14 11:00N 32°07' W 081°08'0 0.0
2017-Oct-14 10:30N 32°07' W 081°08'0 0.4
2017-Oct-14 10:00N 32°07' W 081°08'1 1.2
2017-Oct-14 09:30N 32°08' W 081°08'1 2.6
2017-Oct-14 09:00N 32°07' W 081°07'3 5.5
2017-Oct-14 08:30N 32°05' W 081°05'3 5.7
2017-Oct-14 08:00N 32°05' W 081°02'4 7.2
2017-Oct-14 07:30N 32°05' W 081°06'0 0.3
2017-Oct-14 07:00N 32°05' W 081°06'0 0.0
2017-Oct-14 06:30N 32°05' W 081°06'0 0.0
2017-Oct-14 06:00N 32°05' W 081°06'0 0.0
2017-Oct-14 05:30N 32°05' W 081°06'0 0.4
2017-Oct-14 05:00N 32°05' W 081°06'2 3.6
2017-Oct-14 04:31N 32°07' W 081°07'2 4.5
2017-Oct-14 04:00N 32°05' W 081°05'1 2.9
2017-Oct-14 03:30N 32°05' W 081°04'0 0.0
2017-Oct-14 03:00N 32°05' W 081°04'0 0.0
2017-Oct-14 02:30N 32°05' W 081°04'0 0.0
2017-Oct-14 02:00N 32°05' W 081°04'0 0.0
2017-Oct-14 01:30N 32°05' W 081°04'0 0.0
2017-Oct-14 01:00N 32°05' W 081°04'0 0.0
2017-Oct-14 00:30N 32°05' W 081°04'0 0.0
2017-Oct-14 00:00N 32°05' W 081°04'0 0.0
2017-Oct-13 23:30N 32°05' W 081°04'0 0.0
2017-Oct-13 23:00N 32°05' W 081°04'0 0.0
2017-Oct-13 22:30N 32°05' W 081°04'0 0.0
2017-Oct-13 22:00N 32°05' W 081°04'0 0.0
2017-Oct-13 21:30N 32°05' W 081°04'0 0.0
2017-Oct-13 21:00N 32°05' W 081°04'0 0.0
2017-Oct-13 20:30N 32°05' W 081°04'0 0.0
2017-Oct-13 20:00N 32°05' W 081°04'0 0.0
2017-Oct-13 19:30N 32°05' W 081°04'0 0.0
2017-Oct-13 19:00N 32°05' W 081°04'0 0.0
2017-Oct-13 18:30N 32°05' W 081°04'0 0.0
2017-Oct-13 18:00N 32°05' W 081°04'0 0.0
2017-Oct-13 17:30N 32°05' W 081°04'0 0.0
2017-Oct-13 17:00N 32°05' W 081°04'2 3.6
2017-Oct-13 16:30N 32°05' W 081°06'3 5.4
2017-Oct-13 16:00N 32°07' W 081°08'0 0.4
2017-Oct-13 15:30N 32°07' W 081°08'0 0.6
2017-Oct-13 15:00N 32°07' W 081°08'2 4.5
2017-Oct-13 14:30N 32°05' W 081°06'0 0.1
2017-Oct-13 14:00N 32°05' W 081°06'0 0.0
2017-Oct-13 13:30N 32°05' W 081°06'0 0.0
2017-Oct-13 13:00N 32°05' W 081°06'0 0.0
2017-Oct-13 12:31N 32°05' W 081°06'3 6.5
2017-Oct-13 12:01N 32°08' W 081°08'0 0.3
2017-Oct-13 11:30N 32°08' W 081°09'1 1.2
2017-Oct-13 11:00N 32°08' W 081°08'0 0.5
2017-Oct-13 10:30N 32°08' W 081°08'1 1.6
2017-Oct-13 10:00N 32°07' W 081°08'3 5.0
2017-Oct-13 09:31N 32°05' W 081°06'0 0.3
2017-Oct-13 09:00N 32°05' W 081°06'0 0.0
2017-Oct-13 08:30N 32°05' W 081°06'0 0.0
2017-Oct-13 08:00N 32°05' W 081°06'0 0.0
2017-Oct-13 07:30N 32°05' W 081°06'0 0.0
2017-Oct-13 07:00N 32°05' W 081°06'0 0.0
2017-Oct-13 06:30N 32°05' W 081°06'0 0.0
2017-Oct-13 06:00N 32°05' W 081°06'0 0.0
2017-Oct-13 05:30N 32°05' W 081°06'1 2.6
2017-Oct-13 05:00N 32°06' W 081°07'2 3.8
2017-Oct-13 04:30N 32°08' W 081°08'1 2.9
2017-Oct-13 04:00N 32°06' W 081°07'3 6.6
2017-Oct-13 03:31N 32°05' W 081°04'0 0.0
2017-Oct-13 03:00N 32°05' W 081°04'0 0.0
2017-Oct-13 02:30N 32°05' W 081°04'0 0.0
2017-Oct-13 02:00N 32°05' W 081°04'0 0.0
2017-Oct-13 01:30N 32°05' W 081°04'0 0.0
2017-Oct-13 01:00N 32°05' W 081°04'0 0.0
2017-Oct-13 00:30N 32°05' W 081°04'0 0.0
2017-Oct-13 00:00N 32°05' W 081°04'0 0.0
2017-Oct-12 23:30N 32°05' W 081°04'0 0.0
2017-Oct-12 23:00N 32°05' W 081°04'0 0.0
2017-Oct-12 22:30N 32°05' W 081°04'2 3.9
2017-Oct-12 22:00N 32°05' W 081°06'3 6.8
2017-Oct-12 21:30N 32°08' W 081°09'0 0.3
2017-Oct-12 21:00N 32°08' W 081°08'1 2.9
2017-Oct-12 20:30N 32°07' W 081°08'2 3.7
2017-Oct-12 20:00N 32°05' W 081°06'0 0.0
2017-Oct-12 19:30N 32°05' W 081°06'1 1.5
2017-Oct-12 19:00N 32°06' W 081°07'  

Dump ship's entire track history